Terminal Aerodrome Forecast
Issued by NWS Albuquerque, NM

Home | Current Version | Previous Version | Text Only | Print | Product List | Glossary On
Versions: 1 2 3 4 5 6 7 8 9 10 11 12 13 14 15
000
FTUS45 KABQ 272354 AAA
TAFABQ
TAF AMD
KABQ 272354Z 2800/2824 23011KT P6SM SCT080
     FM280300 31006KT P6SM BKN100
     FM280700 01004KT P6SM SCT120
     FM281900 09006KT P6SM SCT080=

USA.gov is the U.S. government's official web portal to all federal, state and local government web resources and services.